sensor_id;sensor_type;location;lat;lon;timestamp;P1;durP1;ratioP1;P2;durP2;ratioP2
84834;SDS011;75078;42.636;23.198;2024-01-06T00:00:38;1.83;;;1.73;;
84834;SDS011;75078;42.636;23.198;2024-01-06T00:03:03;2.25;;;1.30;;
84834;SDS011;75078;42.636;23.198;2024-01-06T00:05:31;2.13;;;1.70;;
84834;SDS011;75078;42.636;23.198;2024-01-06T00:07:56;1.73;;;1.42;;
84834;SDS011;75078;42.636;23.198;2024-01-06T00:10:21;4.30;;;1.90;;
84834;SDS011;75078;42.636;23.198;2024-01-06T00:12:47;2.90;;;1.50;;
84834;SDS011;75078;42.636;23.198;2024-01-06T00:15:13;2.90;;;1.83;;
84834;SDS011;75078;42.636;23.198;2024-01-06T00:17:39;6.82;;;3.70;;
84834;SDS011;75078;42.636;23.198;2024-01-06T00:20:04;10.82;;;4.30;;
84834;SDS011;75078;42.636;23.198;2024-01-06T00:22:30;11.40;;;4.43;;
84834;SDS011;75078;42.636;23.198;2024-01-06T00:24:56;11.07;;;5.03;;
84834;SDS011;75078;42.636;23.198;2024-01-06T00:27:21;11.65;;;4.55;;
84834;SDS011;75078;42.636;23.198;2024-01-06T00:29:46;5.70;;;3.25;;
84834;SDS011;75078;42.636;23.198;2024-01-06T00:32:12;8.48;;;3.88;;
84834;SDS011;75078;42.636;23.198;2024-01-06T00:34:38;6.43;;;3.10;;
84834;SDS011;75078;42.636;23.198;2024-01-06T00:37:03;7.68;;;3.33;;
84834;SDS011;75078;42.636;23.198;2024-01-06T00:39:28;7.40;;;3.30;;
84834;SDS011;75078;42.636;23.198;2024-01-06T00:41:54;9.45;;;4.65;;
84834;SDS011;75078;42.636;23.198;2024-01-06T00:44:19;12.57;;;4.50;;
84834;SDS011;75078;42.636;23.198;2024-01-06T00:46:45;12.80;;;5.32;;
84834;SDS011;75078;42.636;23.198;2024-01-06T00:49:10;17.40;;;5.65;;
84834;SDS011;75078;42.636;23.198;2024-01-06T00:51:35;12.70;;;5.70;;
84834;SDS011;75078;42.636;23.198;2024-01-06T00:54:01;7.65;;;4.35;;
84834;SDS011;75078;42.636;23.198;2024-01-06T00:56:26;11.60;;;4.90;;
84834;SDS011;75078;42.636;23.198;2024-01-06T00:58:52;5.00;;;2.70;;
84834;SDS011;75078;42.636;23.198;2024-01-06T01:01:18;4.38;;;2.40;;
84834;SDS011;75078;42.636;23.198;2024-01-06T01:03:43;7.65;;;3.13;;
84834;SDS011;75078;42.636;23.198;2024-01-06T01:06:08;6.10;;;3.50;;
84834;SDS011;75078;42.636;23.198;2024-01-06T01:08:34;2.78;;;2.35;;
84834;SDS011;75078;42.636;23.198;2024-01-06T01:10:59;3.33;;;2.03;;
84834;SDS011;75078;42.636;23.198;2024-01-06T01:13:25;3.47;;;2.15;;
84834;SDS011;75078;42.636;23.198;2024-01-06T01:15:53;6.68;;;2.85;;
84834;SDS011;75078;42.636;23.198;2024-01-06T01:18:18;3.38;;;1.80;;
84834;SDS011;75078;42.636;23.198;2024-01-06T01:20:44;1.38;;;1.27;;
84834;SDS011;75078;42.636;23.198;2024-01-06T01:23:09;2.25;;;1.58;;
84834;SDS011;75078;42.636;23.198;2024-01-06T01:25:35;3.55;;;1.67;;
84834;SDS011;75078;42.636;23.198;2024-01-06T01:28:00;1.08;;;1.02;;
84834;SDS011;75078;42.636;23.198;2024-01-06T01:30:25;1.17;;;1.00;;
84834;SDS011;75078;42.636;23.198;2024-01-06T01:32:53;1.38;;;1.27;;
84834;SDS011;75078;42.636;23.198;2024-01-06T01:35:18;0.80;;;0.80;;
84834;SDS011;75078;42.636;23.198;2024-01-06T01:37:44;1.50;;;1.25;;
84834;SDS011;75078;42.636;23.198;2024-01-06T01:40:12;2.80;;;1.13;;
84834;SDS011;75078;42.636;23.198;2024-01-06T01:42:37;1.67;;;1.20;;
84834;SDS011;75078;42.636;23.198;2024-01-06T01:45:03;2.38;;;0.95;;
84834;SDS011;75078;42.636;23.198;2024-01-06T01:47:32;2.75;;;1.13;;
84834;SDS011;75078;42.636;23.198;2024-01-06T01:49:57;1.00;;;0.90;;
84834;SDS011;75078;42.636;23.198;2024-01-06T01:52:23;1.67;;;1.02;;
84834;SDS011;75078;42.636;23.198;2024-01-06T01:54:48;5.00;;;2.00;;
84834;SDS011;75078;42.636;23.198;2024-01-06T01:57:14;1.90;;;1.10;;
84834;SDS011;75078;42.636;23.198;2024-01-06T01:59:41;1.50;;;1.15;;
84834;SDS011;75078;42.636;23.198;2024-01-06T02:02:07;0.75;;;0.75;;
84834;SDS011;75078;42.636;23.198;2024-01-06T02:04:33;1.30;;;1.00;;
84834;SDS011;75078;42.636;23.198;2024-01-06T02:07:00;0.77;;;0.77;;
84834;SDS011;75078;42.636;23.198;2024-01-06T02:09:26;1.45;;;0.93;;
84834;SDS011;75078;42.636;23.198;2024-01-06T02:11:56;1.35;;;1.08;;
84834;SDS011;75078;42.636;23.198;2024-01-06T02:14:23;1.00;;;1.00;;
84834;SDS011;75078;42.636;23.198;2024-01-06T02:16:48;0.73;;;0.73;;
84834;SDS011;75078;42.636;23.198;2024-01-06T02:19:13;2.05;;;1.15;;
84834;SDS011;75078;42.636;23.198;2024-01-06T02:21:42;2.47;;;1.33;;
84834;SDS011;75078;42.636;23.198;2024-01-06T02:24:08;2.33;;;0.90;;
84834;SDS011;75078;42.636;23.198;2024-01-06T02:26:34;2.08;;;0.90;;
84834;SDS011;75078;42.636;23.198;2024-01-06T02:28:59;0.70;;;0.65;;
84834;SDS011;75078;42.636;23.198;2024-01-06T02:31:24;1.67;;;0.60;;
84834;SDS011;75078;42.636;23.198;2024-01-06T02:33:50;1.25;;;0.70;;
84834;SDS011;75078;42.636;23.198;2024-01-06T02:36:15;1.13;;;0.82;;
84834;SDS011;75078;42.636;23.198;2024-01-06T02:38:41;2.13;;;0.75;;
84834;SDS011;75078;42.636;23.198;2024-01-06T02:41:06;1.10;;;0.82;;
84834;SDS011;75078;42.636;23.198;2024-01-06T02:43:32;0.85;;;0.70;;
84834;SDS011;75078;42.636;23.198;2024-01-06T02:45:57;2.38;;;0.85;;
84834;SDS011;75078;42.636;23.198;2024-01-06T02:48:22;1.15;;;0.80;;
84834;SDS011;75078;42.636;23.198;2024-01-06T02:50:48;1.20;;;0.93;;
84834;SDS011;75078;42.636;23.198;2024-01-06T02:53:13;2.05;;;1.73;;
84834;SDS011;75078;42.636;23.198;2024-01-06T02:55:39;2.55;;;1.17;;
84834;SDS011;75078;42.636;23.198;2024-01-06T02:58:04;1.27;;;1.13;;
84834;SDS011;75078;42.636;23.198;2024-01-06T03:00:30;1.73;;;1.23;;
84834;SDS011;75078;42.636;23.198;2024-01-06T03:02:55;1.00;;;1.00;;
84834;SDS011;75078;42.636;23.198;2024-01-06T03:05:20;1.10;;;1.00;;
84834;SDS011;75078;42.636;23.198;2024-01-06T03:07:46;1.30;;;1.13;;
84834;SDS011;75078;42.636;23.198;2024-01-06T03:10:11;1.58;;;0.82;;
84834;SDS011;75078;42.636;23.198;2024-01-06T03:12:37;1.42;;;1.00;;
84834;SDS011;75078;42.636;23.198;2024-01-06T03:15:02;0.70;;;0.70;;
84834;SDS011;75078;42.636;23.198;2024-01-06T03:17:28;1.38;;;1.25;;
84834;SDS011;75078;42.636;23.198;2024-01-06T03:19:54;1.10;;;0.82;;
84834;SDS011;75078;42.636;23.198;2024-01-06T03:22:19;1.67;;;0.90;;
84834;SDS011;75078;42.636;23.198;2024-01-06T03:24:45;1.17;;;0.77;;
84834;SDS011;75078;42.636;23.198;2024-01-06T03:27:12;1.33;;;1.23;;
84834;SDS011;75078;42.636;23.198;2024-01-06T03:29:38;0.75;;;0.73;;
84834;SDS011;75078;42.636;23.198;2024-01-06T03:32:03;1.95;;;1.02;;
84834;SDS011;75078;42.636;23.198;2024-01-06T03:34:29;1.20;;;1.10;;
84834;SDS011;75078;42.636;23.198;2024-01-06T03:36:54;1.45;;;0.70;;
84834;SDS011;75078;42.636;23.198;2024-01-06T03:39:19;0.93;;;0.93;;
84834;SDS011;75078;42.636;23.198;2024-01-06T03:41:45;0.68;;;0.65;;
84834;SDS011;75078;42.636;23.198;2024-01-06T03:44:10;1.27;;;1.10;;
84834;SDS011;75078;42.636;23.198;2024-01-06T03:46:35;1.25;;;1.25;;
84834;SDS011;75078;42.636;23.198;2024-01-06T03:49:01;1.13;;;1.13;;
84834;SDS011;75078;42.636;23.198;2024-01-06T03:51:27;0.80;;;0.80;;
84834;SDS011;75078;42.636;23.198;2024-01-06T03:53:52;1.38;;;1.00;;
84834;SDS011;75078;42.636;23.198;2024-01-06T03:56:17;2.38;;;0.82;;
84834;SDS011;75078;42.636;23.198;2024-01-06T03:58:43;1.70;;;1.08;;
84834;SDS011;75078;42.636;23.198;2024-01-06T04:01:09;2.15;;;1.20;;
84834;SDS011;75078;42.636;23.198;2024-01-06T04:03:34;3.50;;;1.63;;
84834;SDS011;75078;42.636;23.198;2024-01-06T04:06:00;3.85;;;1.05;;
84834;SDS011;75078;42.636;23.198;2024-01-06T04:08:26;1.00;;;0.85;;
84834;SDS011;75078;42.636;23.198;2024-01-06T04:10:51;2.35;;;1.20;;
84834;SDS011;75078;42.636;23.198;2024-01-06T04:13:17;2.22;;;1.63;;
84834;SDS011;75078;42.636;23.198;2024-01-06T04:15:42;2.13;;;1.48;;
84834;SDS011;75078;42.636;23.198;2024-01-06T04:18:07;1.75;;;1.10;;
84834;SDS011;75078;42.636;23.198;2024-01-06T04:20:34;2.92;;;1.38;;
84834;SDS011;75078;42.636;23.198;2024-01-06T04:23:00;1.52;;;1.42;;
84834;SDS011;75078;42.636;23.198;2024-01-06T04:25:25;1.75;;;1.65;;
84834;SDS011;75078;42.636;23.198;2024-01-06T04:27:50;1.52;;;1.42;;
84834;SDS011;75078;42.636;23.198;2024-01-06T04:30:16;0.90;;;0.90;;
84834;SDS011;75078;42.636;23.198;2024-01-06T04:32:42;1.83;;;1.13;;
84834;SDS011;75078;42.636;23.198;2024-01-06T04:35:08;2.35;;;1.70;;
84834;SDS011;75078;42.636;23.198;2024-01-06T04:37:33;0.82;;;0.82;;
84834;SDS011;75078;42.636;23.198;2024-01-06T04:39:59;1.70;;;1.60;;
84834;SDS011;75078;42.636;23.198;2024-01-06T04:42:25;1.25;;;1.23;;
84834;SDS011;75078;42.636;23.198;2024-01-06T04:44:50;1.45;;;0.80;;
84834;SDS011;75078;42.636;23.198;2024-01-06T04:47:16;2.50;;;0.98;;
84834;SDS011;75078;42.636;23.198;2024-01-06T04:49:44;1.42;;;1.02;;
84834;SDS011;75078;42.636;23.198;2024-01-06T04:52:10;1.00;;;0.90;;
84834;SDS011;75078;42.636;23.198;2024-01-06T04:54:37;1.30;;;1.20;;
84834;SDS011;75078;42.636;23.198;2024-01-06T04:57:03;1.90;;;1.38;;
84834;SDS011;75078;42.636;23.198;2024-01-06T04:59:29;1.85;;;1.13;;
84834;SDS011;75078;42.636;23.198;2024-01-06T05:01:56;1.23;;;1.13;;
84834;SDS011;75078;42.636;23.198;2024-01-06T05:04:22;2.17;;;1.35;;
84834;SDS011;75078;42.636;23.198;2024-01-06T05:06:47;2.95;;;1.08;;
84834;SDS011;75078;42.636;23.198;2024-01-06T05:09:14;2.15;;;1.45;;
84834;SDS011;75078;42.636;23.198;2024-01-06T05:11:40;1.25;;;1.15;;
84834;SDS011;75078;42.636;23.198;2024-01-06T05:14:05;2.50;;;1.58;;
84834;SDS011;75078;42.636;23.198;2024-01-06T05:16:31;1.30;;;1.17;;
84834;SDS011;75078;42.636;23.198;2024-01-06T05:18:56;3.35;;;1.45;;
84834;SDS011;75078;42.636;23.198;2024-01-06T05:21:21;3.08;;;0.82;;
84834;SDS011;75078;42.636;23.198;2024-01-06T05:23:47;1.45;;;1.35;;
84834;SDS011;75078;42.636;23.198;2024-01-06T05:26:14;1.58;;;1.00;;
84834;SDS011;75078;42.636;23.198;2024-01-06T05:28:40;2.53;;;1.48;;
84834;SDS011;75078;42.636;23.198;2024-01-06T05:31:05;1.85;;;1.33;;
84834;SDS011;75078;42.636;23.198;2024-01-06T05:33:33;1.60;;;1.50;;
84834;SDS011;75078;42.636;23.198;2024-01-06T05:35:58;3.40;;;1.90;;
84834;SDS011;75078;42.636;23.198;2024-01-06T05:38:23;2.55;;;1.98;;
84834;SDS011;75078;42.636;23.198;2024-01-06T05:40:49;2.83;;;1.63;;
84834;SDS011;75078;42.636;23.198;2024-01-06T05:43:14;3.42;;;2.35;;
84834;SDS011;75078;42.636;23.198;2024-01-06T05:45:39;6.30;;;3.40;;
84834;SDS011;75078;42.636;23.198;2024-01-06T05:48:10;4.07;;;3.10;;
84834;SDS011;75078;42.636;23.198;2024-01-06T05:50:37;4.15;;;2.63;;
84834;SDS011;75078;42.636;23.198;2024-01-06T05:53:04;7.13;;;6.22;;
84834;SDS011;75078;42.636;23.198;2024-01-06T05:55:29;3.40;;;2.90;;
84834;SDS011;75078;42.636;23.198;2024-01-06T05:57:54;2.55;;;2.13;;
84834;SDS011;75078;42.636;23.198;2024-01-06T06:00:20;7.03;;;3.35;;
84834;SDS011;75078;42.636;23.198;2024-01-06T06:02:47;1.85;;;1.75;;
84834;SDS011;75078;42.636;23.198;2024-01-06T06:05:13;2.65;;;1.63;;
84834;SDS011;75078;42.636;23.198;2024-01-06T06:07:41;2.03;;;1.92;;
84834;SDS011;75078;42.636;23.198;2024-01-06T06:10:07;1.92;;;1.60;;
84834;SDS011;75078;42.636;23.198;2024-01-06T06:12:34;2.88;;;1.67;;
84834;SDS011;75078;42.636;23.198;2024-01-06T06:14:59;1.80;;;1.70;;
84834;SDS011;75078;42.636;23.198;2024-01-06T06:17:25;1.70;;;1.50;;
84834;SDS011;75078;42.636;23.198;2024-01-06T06:19:51;2.42;;;1.65;;
84834;SDS011;75078;42.636;23.198;2024-01-06T06:22:16;4.35;;;3.95;;
84834;SDS011;75078;42.636;23.198;2024-01-06T06:24:42;5.38;;;2.92;;
84834;SDS011;75078;42.636;23.198;2024-01-06T06:27:08;8.95;;;5.15;;
84834;SDS011;75078;42.636;23.198;2024-01-06T06:29:33;5.18;;;4.18;;
84834;SDS011;75078;42.636;23.198;2024-01-06T06:31:59;4.13;;;3.80;;
84834;SDS011;75078;42.636;23.198;2024-01-06T06:34:26;2.60;;;2.45;;
84834;SDS011;75078;42.636;23.198;2024-01-06T06:36:52;1.42;;;1.33;;
84834;SDS011;75078;42.636;23.198;2024-01-06T06:39:17;1.42;;;1.13;;
84834;SDS011;75078;42.636;23.198;2024-01-06T06:41:43;3.15;;;2.17;;
84834;SDS011;75078;42.636;23.198;2024-01-06T06:44:09;5.05;;;3.85;;
84834;SDS011;75078;42.636;23.198;2024-01-06T06:46:35;2.63;;;2.13;;
84834;SDS011;75078;42.636;23.198;2024-01-06T06:49:01;6.20;;;3.63;;
84834;SDS011;75078;42.636;23.198;2024-01-06T06:51:27;5.13;;;2.90;;
84834;SDS011;75078;42.636;23.198;2024-01-06T06:53:54;3.25;;;2.00;;
84834;SDS011;75078;42.636;23.198;2024-01-06T06:56:20;1.42;;;1.33;;
84834;SDS011;75078;42.636;23.198;2024-01-06T06:58:48;2.45;;;1.88;;
84834;SDS011;75078;42.636;23.198;2024-01-06T07:01:16;1.65;;;1.55;;
84834;SDS011;75078;42.636;23.198;2024-01-06T07:03:42;2.05;;;1.63;;
84834;SDS011;75078;42.636;23.198;2024-01-06T07:06:07;4.88;;;1.73;;
84834;SDS011;75078;42.636;23.198;2024-01-06T07:08:32;2.85;;;2.00;;
84834;SDS011;75078;42.636;23.198;2024-01-06T07:10:58;2.83;;;1.75;;
84834;SDS011;75078;42.636;23.198;2024-01-06T07:13:23;1.55;;;0.93;;
84834;SDS011;75078;42.636;23.198;2024-01-06T07:15:52;2.42;;;2.13;;
84834;SDS011;75078;42.636;23.198;2024-01-06T07:18:17;2.45;;;1.40;;
84834;SDS011;75078;42.636;23.198;2024-01-06T07:20:44;2.13;;;1.35;;
84834;SDS011;75078;42.636;23.198;2024-01-06T07:23:09;1.35;;;1.25;;
84834;SDS011;75078;42.636;23.198;2024-01-06T07:25:35;4.03;;;1.17;;
84834;SDS011;75078;42.636;23.198;2024-01-06T07:28:00;1.52;;;1.23;;
84834;SDS011;75078;42.636;23.198;2024-01-06T07:30:25;1.95;;;1.45;;
84834;SDS011;75078;42.636;23.198;2024-01-06T07:32:51;1.65;;;1.55;;
84834;SDS011;75078;42.636;23.198;2024-01-06T07:35:17;1.65;;;1.50;;
84834;SDS011;75078;42.636;23.198;2024-01-06T07:37:42;1.52;;;1.42;;
84834;SDS011;75078;42.636;23.198;2024-01-06T07:40:08;2.80;;;1.58;;
84834;SDS011;75078;42.636;23.198;2024-01-06T07:42:34;2.10;;;1.55;;
84834;SDS011;75078;42.636;23.198;2024-01-06T07:44:59;2.22;;;1.60;;
84834;SDS011;75078;42.636;23.198;2024-01-06T07:47:25;2.10;;;1.90;;
84834;SDS011;75078;42.636;23.198;2024-01-06T07:49:50;3.20;;;1.92;;
84834;SDS011;75078;42.636;23.198;2024-01-06T07:52:17;2.72;;;2.50;;
84834;SDS011;75078;42.636;23.198;2024-01-06T07:54:43;4.95;;;2.80;;
84834;SDS011;75078;42.636;23.198;2024-01-06T07:57:08;3.75;;;2.85;;
84834;SDS011;75078;42.636;23.198;2024-01-06T07:59:36;3.53;;;2.90;;
84834;SDS011;75078;42.636;23.198;2024-01-06T08:02:01;5.03;;;2.85;;
84834;SDS011;75078;42.636;23.198;2024-01-06T08:04:27;3.58;;;2.72;;
84834;SDS011;75078;42.636;23.198;2024-01-06T08:06:52;3.17;;;2.10;;
84834;SDS011;75078;42.636;23.198;2024-01-06T08:09:17;3.40;;;1.85;;
84834;SDS011;75078;42.636;23.198;2024-01-06T08:11:43;5.57;;;2.88;;
84834;SDS011;75078;42.636;23.198;2024-01-06T08:14:10;4.50;;;2.45;;
84834;SDS011;75078;42.636;23.198;2024-01-06T08:16:36;2.38;;;2.17;;
84834;SDS011;75078;42.636;23.198;2024-01-06T08:19:01;4.32;;;2.40;;
84834;SDS011;75078;42.636;23.198;2024-01-06T08:21:27;2.13;;;1.92;;
84834;SDS011;75078;42.636;23.198;2024-01-06T08:23:53;2.63;;;2.00;;
84834;SDS011;75078;42.636;23.198;2024-01-06T08:26:18;4.25;;;2.70;;
84834;SDS011;75078;42.636;23.198;2024-01-06T08:28:43;3.35;;;2.63;;
84834;SDS011;75078;42.636;23.198;2024-01-06T08:31:09;2.65;;;2.45;;
84834;SDS011;75078;42.636;23.198;2024-01-06T08:33:34;3.22;;;2.92;;
84834;SDS011;75078;42.636;23.198;2024-01-06T08:36:00;3.63;;;2.67;;
84834;SDS011;75078;42.636;23.198;2024-01-06T08:38:25;3.17;;;2.63;;
84834;SDS011;75078;42.636;23.198;2024-01-06T08:40:50;3.15;;;1.48;;
84834;SDS011;75078;42.636;23.198;2024-01-06T08:43:18;2.25;;;1.60;;
84834;SDS011;75078;42.636;23.198;2024-01-06T08:45:45;3.50;;;1.08;;
84834;SDS011;75078;42.636;23.198;2024-01-06T08:48:10;4.90;;;1.75;;
84834;SDS011;75078;42.636;23.198;2024-01-06T08:50:37;1.60;;;1.33;;
84834;SDS011;75078;42.636;23.198;2024-01-06T08:53:02;1.67;;;1.20;;
84834;SDS011;75078;42.636;23.198;2024-01-06T08:55:29;3.58;;;2.05;;
84834;SDS011;75078;42.636;23.198;2024-01-06T08:57:57;3.30;;;2.13;;
84834;SDS011;75078;42.636;23.198;2024-01-06T09:00:23;3.67;;;2.17;;
84834;SDS011;75078;42.636;23.198;2024-01-06T09:02:48;0.90;;;0.88;;
84834;SDS011;75078;42.636;23.198;2024-01-06T09:05:14;1.25;;;1.15;;
84834;SDS011;75078;42.636;23.198;2024-01-06T09:07:39;3.20;;;1.77;;
84834;SDS011;75078;42.636;23.198;2024-01-06T09:10:05;2.60;;;1.30;;
84834;SDS011;75078;42.636;23.198;2024-01-06T09:12:31;1.35;;;1.25;;
84834;SDS011;75078;42.636;23.198;2024-01-06T09:14:56;3.53;;;1.70;;
84834;SDS011;75078;42.636;23.198;2024-01-06T09:17:22;1.45;;;1.33;;
84834;SDS011;75078;42.636;23.198;2024-01-06T09:19:48;3.50;;;2.40;;
84834;SDS011;75078;42.636;23.198;2024-01-06T09:22:13;4.05;;;1.92;;
84834;SDS011;75078;42.636;23.198;2024-01-06T09:24:39;1.45;;;1.35;;
84834;SDS011;75078;42.636;23.198;2024-01-06T09:27:05;3.38;;;1.35;;
84834;SDS011;75078;42.636;23.198;2024-01-06T09:29:30;3.13;;;1.55;;
84834;SDS011;75078;42.636;23.198;2024-01-06T09:31:56;2.10;;;2.00;;
84834;SDS011;75078;42.636;23.198;2024-01-06T09:34:21;3.13;;;2.22;;
84834;SDS011;75078;42.636;23.198;2024-01-06T09:36:46;1.90;;;1.75;;
84834;SDS011;75078;42.636;23.198;2024-01-06T09:39:12;1.67;;;1.58;;
84834;SDS011;75078;42.636;23.198;2024-01-06T09:41:37;2.55;;;1.60;;
84834;SDS011;75078;42.636;23.198;2024-01-06T09:44:02;1.98;;;1.35;;
84834;SDS011;75078;42.636;23.198;2024-01-06T09:46:28;2.08;;;1.33;;
84834;SDS011;75078;42.636;23.198;2024-01-06T09:48:57;2.03;;;1.83;;
84834;SDS011;75078;42.636;23.198;2024-01-06T09:51:23;1.75;;;1.65;;
84834;SDS011;75078;42.636;23.198;2024-01-06T09:56:24;3.20;;;2.20;;
84834;SDS011;75078;42.636;23.198;2024-01-06T09:58:51;2.72;;;1.65;;
84834;SDS011;75078;42.636;23.198;2024-01-06T10:01:20;2.78;;;1.55;;
84834;SDS011;75078;42.636;23.198;2024-01-06T10:03:46;3.15;;;2.45;;
84834;SDS011;75078;42.636;23.198;2024-01-06T10:06:15;8.52;;;3.33;;
84834;SDS011;75078;42.636;23.198;2024-01-06T10:08:44;5.55;;;2.47;;
84834;SDS011;75078;42.636;23.198;2024-01-06T10:11:12;3.05;;;1.95;;
84834;SDS011;75078;42.636;23.198;2024-01-06T10:13:38;3.67;;;2.03;;
84834;SDS011;75078;42.636;23.198;2024-01-06T10:16:06;3.03;;;1.75;;
84834;SDS011;75078;42.636;23.198;2024-01-06T10:20:57;2.85;;;1.35;;
84834;SDS011;75078;42.636;23.198;2024-01-06T10:23:23;6.47;;;3.00;;
84834;SDS011;75078;42.636;23.198;2024-01-06T10:25:52;1.70;;;1.45;;
84834;SDS011;75078;42.636;23.198;2024-01-06T10:28:18;3.95;;;1.98;;
84834;SDS011;75078;42.636;23.198;2024-01-06T10:30:45;2.90;;;2.33;;
84834;SDS011;75078;42.636;23.198;2024-01-06T10:33:13;4.13;;;1.30;;
84834;SDS011;75078;42.636;23.198;2024-01-06T10:35:38;3.45;;;1.75;;
84834;SDS011;75078;42.636;23.198;2024-01-06T10:38:04;2.13;;;1.40;;
84834;SDS011;75078;42.636;23.198;2024-01-06T10:40:30;1.92;;;1.30;;
84834;SDS011;75078;42.636;23.198;2024-01-06T10:42:55;2.00;;;1.13;;
84834;SDS011;75078;42.636;23.198;2024-01-06T10:45:22;4.10;;;1.80;;
84834;SDS011;75078;42.636;23.198;2024-01-06T10:47:48;2.00;;;1.23;;
84834;SDS011;75078;42.636;23.198;2024-01-06T10:50:14;3.10;;;1.83;;
84834;SDS011;75078;42.636;23.198;2024-01-06T10:52:46;1.63;;;1.40;;
84834;SDS011;75078;42.636;23.198;2024-01-06T10:55:13;3.35;;;1.70;;
84834;SDS011;75078;42.636;23.198;2024-01-06T10:57:43;1.45;;;1.35;;
84834;SDS011;75078;42.636;23.198;2024-01-06T11:00:08;6.78;;;1.48;;
84834;SDS011;75078;42.636;23.198;2024-01-06T11:02:35;2.40;;;1.48;;
84834;SDS011;75078;42.636;23.198;2024-01-06T11:05:01;1.85;;;1.75;;
84834;SDS011;75078;42.636;23.198;2024-01-06T11:07:27;2.78;;;1.30;;
84834;SDS011;75078;42.636;23.198;2024-01-06T11:12:43;2.13;;;1.92;;
84834;SDS011;75078;42.636;23.198;2024-01-06T11:15:08;4.43;;;1.70;;
84834;SDS011;75078;42.636;23.198;2024-01-06T11:17:50;2.78;;;2.00;;
84834;SDS011;75078;42.636;23.198;2024-01-06T11:20:18;1.73;;;1.33;;
84834;SDS011;75078;42.636;23.198;2024-01-06T11:22:45;1.95;;;1.30;;
84834;SDS011;75078;42.636;23.198;2024-01-06T11:25:13;1.50;;;1.30;;
84834;SDS011;75078;42.636;23.198;2024-01-06T11:27:41;1.45;;;1.17;;
84834;SDS011;75078;42.636;23.198;2024-01-06T11:30:18;3.65;;;1.65;;
84834;SDS011;75078;42.636;23.198;2024-01-06T11:32:48;2.63;;;1.83;;
84834;SDS011;75078;42.636;23.198;2024-01-06T11:35:14;4.18;;;1.88;;
84834;SDS011;75078;42.636;23.198;2024-01-06T11:42:47;3.40;;;1.90;;
84834;SDS011;75078;42.636;23.198;2024-01-06T11:45:14;1.92;;;1.80;;
84834;SDS011;75078;42.636;23.198;2024-01-06T11:47:47;5.82;;;4.05;;
84834;SDS011;75078;42.636;23.198;2024-01-06T11:50:13;1.58;;;1.42;;
84834;SDS011;75078;42.636;23.198;2024-01-06T11:52:38;3.60;;;1.88;;
84834;SDS011;75078;42.636;23.198;2024-01-06T11:55:04;2.47;;;1.73;;
84834;SDS011;75078;42.636;23.198;2024-01-06T11:57:33;3.47;;;1.83;;
84834;SDS011;75078;42.636;23.198;2024-01-06T11:59:58;5.47;;;1.67;;
84834;SDS011;75078;42.636;23.198;2024-01-06T12:02:24;6.35;;;2.22;;
84834;SDS011;75078;42.636;23.198;2024-01-06T12:04:49;2.25;;;1.77;;
84834;SDS011;75078;42.636;23.198;2024-01-06T12:07:18;1.48;;;1.15;;
84834;SDS011;75078;42.636;23.198;2024-01-06T12:09:47;3.63;;;2.85;;
84834;SDS011;75078;42.636;23.198;2024-01-06T12:12:16;16.95;;;9.35;;
84834;SDS011;75078;42.636;23.198;2024-01-06T12:14:42;17.23;;;10.85;;
84834;SDS011;75078;42.636;23.198;2024-01-06T12:17:08;23.85;;;11.88;;
84834;SDS011;75078;42.636;23.198;2024-01-06T12:19:34;15.70;;;10.93;;
84834;SDS011;75078;42.636;23.198;2024-01-06T12:22:00;15.38;;;10.57;;
84834;SDS011;75078;42.636;23.198;2024-01-06T12:24:27;15.65;;;9.57;;
84834;SDS011;75078;42.636;23.198;2024-01-06T12:26:54;15.55;;;10.13;;
84834;SDS011;75078;42.636;23.198;2024-01-06T12:29:22;17.00;;;9.68;;
84834;SDS011;75078;42.636;23.198;2024-01-06T12:31:47;18.25;;;9.15;;
84834;SDS011;75078;42.636;23.198;2024-01-06T12:34:13;18.95;;;8.75;;
84834;SDS011;75078;42.636;23.198;2024-01-06T12:36:38;17.63;;;8.55;;
84834;SDS011;75078;42.636;23.198;2024-01-06T12:39:06;15.02;;;7.57;;
84834;SDS011;75078;42.636;23.198;2024-01-06T12:41:38;1.17;;;1.15;;
84834;SDS011;75078;42.636;23.198;2024-01-06T12:44:04;2.50;;;1.63;;
84834;SDS011;75078;42.636;23.198;2024-01-06T12:46:29;2.58;;;1.65;;
84834;SDS011;75078;42.636;23.198;2024-01-06T12:48:58;1.65;;;1.55;;
84834;SDS011;75078;42.636;23.198;2024-01-06T12:51:23;2.72;;;2.08;;
84834;SDS011;75078;42.636;23.198;2024-01-06T12:53:49;5.60;;;3.38;;
84834;SDS011;75078;42.636;23.198;2024-01-06T12:56:14;11.25;;;6.22;;
84834;SDS011;75078;42.636;23.198;2024-01-06T12:58:40;7.70;;;4.15;;
84834;SDS011;75078;42.636;23.198;2024-01-06T13:01:06;7.22;;;3.90;;
84834;SDS011;75078;42.636;23.198;2024-01-06T13:03:32;2.85;;;1.90;;
84834;SDS011;75078;42.636;23.198;2024-01-06T13:06:00;4.00;;;3.33;;
84834;SDS011;75078;42.636;23.198;2024-01-06T13:08:26;2.33;;;1.75;;
84834;SDS011;75078;42.636;23.198;2024-01-06T13:13:20;3.65;;;1.65;;
84834;SDS011;75078;42.636;23.198;2024-01-06T13:15:45;2.17;;;1.77;;
84834;SDS011;75078;42.636;23.198;2024-01-06T13:18:13;5.28;;;1.58;;
84834;SDS011;75078;42.636;23.198;2024-01-06T13:20:39;3.63;;;1.75;;
84834;SDS011;75078;42.636;23.198;2024-01-06T13:23:09;3.97;;;1.50;;
84834;SDS011;75078;42.636;23.198;2024-01-06T13:25:36;2.00;;;1.77;;
84834;SDS011;75078;42.636;23.198;2024-01-06T13:28:04;1.60;;;1.40;;
84834;SDS011;75078;42.636;23.198;2024-01-06T13:30:31;2.03;;;1.23;;
84834;SDS011;75078;42.636;23.198;2024-01-06T13:32:57;2.63;;;1.52;;
84834;SDS011;75078;42.636;23.198;2024-01-06T13:35:23;3.13;;;1.75;;
84834;SDS011;75078;42.636;23.198;2024-01-06T13:37:54;4.30;;;2.42;;
84834;SDS011;75078;42.636;23.198;2024-01-06T13:40:23;4.40;;;2.65;;
84834;SDS011;75078;42.636;23.198;2024-01-06T13:42:49;3.10;;;2.28;;
84834;SDS011;75078;42.636;23.198;2024-01-06T13:45:19;7.75;;;3.00;;
84834;SDS011;75078;42.636;23.198;2024-01-06T13:47:44;2.03;;;1.30;;
84834;SDS011;75078;42.636;23.198;2024-01-06T13:50:13;2.78;;;1.73;;
84834;SDS011;75078;42.636;23.198;2024-01-06T13:52:40;2.65;;;1.83;;
84834;SDS011;75078;42.636;23.198;2024-01-06T13:55:06;2.47;;;1.48;;
84834;SDS011;75078;42.636;23.198;2024-01-06T13:57:35;1.90;;;1.55;;
84834;SDS011;75078;42.636;23.198;2024-01-06T14:00:02;2.25;;;2.10;;
84834;SDS011;75078;42.636;23.198;2024-01-06T14:02:29;4.78;;;1.83;;
84834;SDS011;75078;42.636;23.198;2024-01-06T14:04:55;3.75;;;1.45;;
84834;SDS011;75078;42.636;23.198;2024-01-06T14:07:20;4.63;;;2.15;;
84834;SDS011;75078;42.636;23.198;2024-01-06T14:09:47;4.82;;;2.28;;
84834;SDS011;75078;42.636;23.198;2024-01-06T14:12:13;4.38;;;2.35;;
84834;SDS011;75078;42.636;23.198;2024-01-06T14:14:38;5.10;;;4.25;;
84834;SDS011;75078;42.636;23.198;2024-01-06T14:17:04;7.72;;;4.82;;
84834;SDS011;75078;42.636;23.198;2024-01-06T14:19:30;9.20;;;6.55;;
84834;SDS011;75078;42.636;23.198;2024-01-06T14:21:55;6.03;;;3.40;;
84834;SDS011;75078;42.636;23.198;2024-01-06T14:24:20;9.35;;;4.78;;
84834;SDS011;75078;42.636;23.198;2024-01-06T14:26:51;3.50;;;3.15;;
84834;SDS011;75078;42.636;23.198;2024-01-06T14:29:20;3.20;;;2.50;;
84834;SDS011;75078;42.636;23.198;2024-01-06T14:31:45;3.13;;;2.83;;
84834;SDS011;75078;42.636;23.198;2024-01-06T14:34:11;3.63;;;3.08;;
84834;SDS011;75078;42.636;23.198;2024-01-06T14:36:37;4.90;;;4.50;;
84834;SDS011;75078;42.636;23.198;2024-01-06T14:39:02;6.35;;;5.85;;
84834;SDS011;75078;42.636;23.198;2024-01-06T14:41:31;2.90;;;2.67;;